Time;durP1;ratioP1;P1;durP2;ratioP2;P2;SDS_P1;SDS_P2;PMS_P1;PMS_P2;Temp;Humidity;BMP_temperature;BMP_pressure;BME280_temperature;BME280_humidity;BME280_pressure;Samples;Min_cycle;Max_cycle;Signal;HPM_P1;HPM_P2
2022/08/26 00:02:29;;;;;;;5.20;4.80;;;33.20;64.20;;;;;;5095851;28;20831;-66
2022/08/26 00:05:00;;;;;;;5.07;4.60;;;33.20;64.20;;;;;;5090747;28;20511;-66
2022/08/26 00:07:32;;;;;;;4.70;4.40;;;33.10;64.70;;;;;;5109205;28;20555;-66
2022/08/26 00:10:03;;;;;;;5.00;4.60;;;33.10;64.50;;;;;;5107145;28;20462;-67
2022/08/26 00:12:34;;;;;;;4.63;4.23;;;33.20;64.00;;;;;;5100194;28;20462;-67
2022/08/26 00:15:08;;;;;;;5.43;5.03;;;33.20;65.20;;;;;;5105395;28;20457;-67
2022/08/26 00:17:39;;;;;;;4.93;4.57;;;33.20;63.60;;;;;;5114654;28;20453;-67
2022/08/26 00:20:11;;;;;;;4.77;4.37;;;33.20;65.90;;;;;;5106097;28;20459;-66
2022/08/26 00:22:44;;;;;;;4.93;4.53;;;33.10;65.50;;;;;;5114201;28;20489;-66
2022/08/26 00:25:15;;;;;;;5.30;4.90;;;33.00;62.50;;;;;;5105160;28;20873;-66
2022/08/26 00:27:46;;;;;;;4.90;4.60;;;32.90;64.00;;;;;;5097685;28;20477;-67
2022/08/26 00:30:21;;;;;;;4.43;4.10;;;32.90;64.70;;;;;;5112283;28;20506;-67
2022/08/26 00:32:55;;;;;;;5.40;5.00;;;32.90;64.70;;;;;;5103399;28;20477;-67
2022/08/26 00:35:27;;;;;;;4.67;4.33;;;32.90;66.40;;;;;;5090630;28;20467;-66
2022/08/26 00:38:03;;;;;;;4.50;4.00;;;32.80;63.80;;;;;;5098069;28;20533;-65
2022/08/26 00:40:38;;;;;;;4.90;4.50;;;32.60;63.30;;;;;;5101758;28;20469;-66
2022/08/26 00:43:09;;;;;;;5.10;4.70;;;32.50;64.80;;;;;;5111849;28;20513;-65
2022/08/26 00:45:43;;;;;;;4.17;3.80;;;32.50;64.10;;;;;;5119890;28;20939;-66
2022/08/26 00:48:17;;;;;;;4.87;4.47;;;32.40;64.60;;;;;;5122654;28;20490;-66
2022/08/26 00:50:53;;;;;;;4.30;4.00;;;32.30;66.70;;;;;;5126530;28;20431;-66
2022/08/26 00:53:29;;;;;;;4.70;4.30;;;32.30;66.60;;;;;;5117273;28;20937;-67
2022/08/26 00:56:03;;;;;;;4.10;3.80;;;32.30;66.10;;;;;;5125793;28;20470;-69
2022/08/26 00:58:35;;;;;;;4.80;4.37;;;32.20;65.70;;;;;;5125153;28;20461;-66
2022/08/26 01:01:06;;;;;;;4.57;4.20;;;32.20;67.70;;;;;;5090393;28;20477;-68
2022/08/26 01:03:39;;;;;;;4.53;4.13;;;32.20;68.00;;;;;;5117976;28;20503;-67
2022/08/26 01:06:11;;;;;;;4.60;4.20;;;32.00;65.50;;;;;;5120700;28;20472;-67
2022/08/26 01:08:43;;;;;;;4.90;4.50;;;32.10;67.40;;;;;;5118516;28;20460;-67
2022/08/26 01:11:15;;;;;;;4.47;4.07;;;32.00;68.00;;;;;;5107316;27;20462;-68
2022/08/26 01:13:47;;;;;;;4.43;4.03;;;31.90;67.30;;;;;;5114400;28;20488;-68
2022/08/26 01:16:18;;;;;;;4.60;4.20;;;31.90;66.70;;;;;;5109992;28;20915;-68
2022/08/26 01:18:49;;;;;;;5.00;4.50;;;31.90;69.20;;;;;;5108309;28;20492;-68
2022/08/26 01:21:29;;;;;;;4.70;4.30;;;31.80;68.90;;;;;;5108384;28;20918;-67
2022/08/26 01:24:01;;;;;;;4.60;4.30;;;31.80;68.10;;;;;;5103794;28;20497;-66
2022/08/26 01:26:34;;;;;;;4.73;4.23;;;31.80;68.80;;;;;;5109427;28;20474;-67
2022/08/26 01:29:07;;;;;;;9.57;4.73;;;31.70;68.10;;;;;;5113814;28;20473;-66
2022/08/26 01:31:43;;;;;;;4.27;3.87;;;31.70;69.70;;;;;;5105052;28;20487;-66
2022/08/26 01:34:20;;;;;;;4.63;4.33;;;31.60;68.90;;;;;;5106205;28;20514;-66
2022/08/26 01:36:55;;;;;;;5.10;4.60;;;31.60;69.60;;;;;;5103978;28;20471;-67
2022/08/26 01:39:27;;;;;;;4.70;4.20;;;31.50;68.10;;;;;;5113207;28;20858;-67
2022/08/26 01:41:59;;;;;;;34.47;13.40;;;31.50;68.20;;;;;;5109627;28;20505;-66
2022/08/26 01:44:35;;;;;;;8.90;5.40;;;31.40;70.10;;;;;;5118868;28;20504;-66
2022/08/26 01:47:09;;;;;;;4.73;4.33;;;31.30;69.50;;;;;;5114879;28;20520;-66
2022/08/26 01:49:40;;;;;;;5.17;4.70;;;31.30;68.40;;;;;;5125271;28;20439;-66
2022/08/26 01:52:13;;;;;;;5.13;4.63;;;31.30;69.30;;;;;;5109025;28;20457;-66
2022/08/26 01:54:46;;;;;;;5.03;4.63;;;31.20;68.50;;;;;;5104318;28;20520;-66
2022/08/26 01:57:20;;;;;;;4.63;4.20;;;31.10;69.10;;;;;;5108183;28;20469;-66
2022/08/26 01:59:53;;;;;;;4.10;3.70;;;31.10;70.00;;;;;;5105606;28;20555;-67
2022/08/26 02:02:24;;;;;;;3.93;3.63;;;31.00;69.20;;;;;;5118378;28;20461;-65
2022/08/26 02:05:00;;;;;;;3.70;3.40;;;30.80;70.80;;;;;;5089236;28;20482;-65
2022/08/26 02:07:32;;;;;;;3.70;3.40;;;30.80;70.80;;;;;;5096936;28;20575;-65
2022/08/26 02:10:05;;;;;;;3.80;3.50;;;30.70;71.60;;;;;;5088182;28;20579;-65
2022/08/26 02:12:36;;;;;;;3.40;3.10;;;30.70;71.80;;;;;;5092898;28;20465;-65
2022/08/26 02:15:11;;;;;;;5.00;3.50;;;30.60;73.00;;;;;;5095227;28;20946;-65
2022/08/26 02:17:45;;;;;;;3.33;3.03;;;30.50;73.90;;;;;;5112853;28;21015;-65
2022/08/26 02:20:20;;;;;;;3.60;3.30;;;30.40;75.30;;;;;;5123310;28;20486;-65
2022/08/26 02:22:52;;;;;;;3.67;3.37;;;30.30;76.00;;;;;;5110422;28;20513;-64
2022/08/26 02:25:29;;;;;;;3.20;3.00;;;30.20;77.20;;;;;;5087706;28;20462;-67
2022/08/26 02:28:00;;;;;;;3.20;3.00;;;30.00;77.50;;;;;;5093982;28;20476;-67
2022/08/26 02:30:33;;;;;;;3.40;3.10;;;29.70;78.00;;;;;;5093084;28;20485;-66
2022/08/26 02:33:07;;;;;;;3.07;2.87;;;29.50;78.00;;;;;;5099436;28;21554;-67
2022/08/26 02:35:38;;;;;;;3.43;3.13;;;29.30;79.70;;;;;;5097739;28;20484;-67
2022/08/26 02:38:10;;;;;;;3.33;3.07;;;29.10;79.40;;;;;;5100969;28;20457;-67
2022/08/26 02:40:43;;;;;;;3.30;3.10;;;29.00;80.40;;;;;;5103905;28;20460;-67
2022/08/26 02:43:16;;;;;;;3.80;3.50;;;28.90;79.30;;;;;;5100782;28;20571;-66
2022/08/26 02:46:00;;;;;;;2.70;2.50;;;28.90;78.80;;;;;;5092720;28;20971;-66
2022/08/26 02:48:31;;;;;;;2.73;2.53;;;28.90;79.90;;;;;;5107600;28;20487;-66
2022/08/26 02:51:02;;;;;;;3.40;3.10;;;28.80;79.70;;;;;;5105878;28;20459;-67
2022/08/26 02:53:33;;;;;;;3.50;3.20;;;28.70;80.10;;;;;;5099536;28;20482;-69
2022/08/26 02:56:09;;;;;;;3.03;2.80;;;28.60;80.70;;;;;;5104651;28;20478;-66
2022/08/26 02:58:40;;;;;;;3.00;2.80;;;28.50;80.70;;;;;;5111568;28;20461;-67
2022/08/26 03:01:21;;;;;;;3.77;3.47;;;28.30;82.20;;;;;;5123913;28;20551;-68
2022/08/26 03:03:52;;;;;;;3.03;2.60;;;28.10;83.20;;;;;;5123965;28;20493;-67
2022/08/26 03:06:23;;;;;;;3.00;2.70;;;27.80;84.40;;;;;;5121480;28;20455;-66
2022/08/26 03:08:54;;;;;;;3.53;2.83;;;27.60;85.80;;;;;;5120251;28;20444;-68
2022/08/26 03:11:29;;;;;;;2.90;2.70;;;27.60;86.60;;;;;;5111533;28;21016;-67
2022/08/26 03:14:02;;;;;;;2.73;2.53;;;27.50;86.80;;;;;;5106183;28;20464;-68
2022/08/26 03:16:34;;;;;;;2.57;2.37;;;27.30;88.00;;;;;;5120546;28;20527;-68
2022/08/26 03:19:07;;;;;;;2.30;2.10;;;27.10;88.70;;;;;;5108422;28;20496;-68
2022/08/26 03:21:40;;;;;;;1.93;1.83;;;27.00;88.90;;;;;;5113484;28;20489;-69
2022/08/26 03:24:12;;;;;;;2.80;2.60;;;26.90;89.60;;;;;;5103835;28;20543;-70
2022/08/26 03:26:44;;;;;;;2.50;2.23;;;26.90;90.10;;;;;;5093448;28;20473;-70
2022/08/26 03:32:09;;;;;;;1.80;1.70;;;26.80;90.50;;;;;;5090840;28;20457;-70
2022/08/26 03:34:40;;;;;;;2.10;1.90;;;26.50;90.90;;;;;;5091453;28;20589;-69
2022/08/26 03:37:11;;;;;;;3.00;1.70;;;26.40;91.50;;;;;;5098676;28;20461;-70
2022/08/26 03:39:42;;;;;;;2.00;1.80;;;26.30;92.10;;;;;;5108509;28;20542;-69
2022/08/26 03:42:15;;;;;;;2.20;2.00;;;26.10;92.30;;;;;;5115160;28;20475;-69
2022/08/26 03:44:50;;;;;;;1.93;1.60;;;25.90;92.90;;;;;;5104780;28;20489;-67
2022/08/26 03:47:21;;;;;;;1.80;1.70;;;25.80;93.40;;;;;;5110577;28;20460;-67
2022/08/26 03:49:51;;;;;;;1.70;1.60;;;25.70;93.90;;;;;;5108502;28;20470;-67
2022/08/26 03:52:22;;;;;;;1.77;1.67;;;25.60;94.40;;;;;;5108511;28;20461;-69
2022/08/26 03:54:53;;;;;;;1.60;1.50;;;25.50;95.00;;;;;;5112512;27;20464;-70
2022/08/26 03:57:25;;;;;;;2.20;2.03;;;25.40;95.40;;;;;;5112525;28;20458;-67
2022/08/26 03:59:59;;;;;;;1.43;1.33;;;25.30;95.70;;;;;;5092848;28;20462;-70
2022/08/26 04:02:30;;;;;;;1.77;1.63;;;25.20;96.30;;;;;;5098891;28;20479;-69
2022/08/26 04:05:01;;;;;;;2.17;1.97;;;25.10;96.60;;;;;;5119670;28;20566;-69
2022/08/26 04:07:32;;;;;;;1.53;1.43;;;25.00;97.30;;;;;;5081758;28;20517;-69
2022/08/26 04:10:03;;;;;;;1.73;1.63;;;24.80;97.80;;;;;;5088236;28;20460;-68
2022/08/26 04:12:36;;;;;;;1.67;1.57;;;24.80;98.40;;;;;;5109966;28;20953;-69
2022/08/26 04:15:09;;;;;;;2.00;1.80;;;24.60;98.70;;;;;;5086713;28;20464;-68
2022/08/26 04:17:40;;;;;;;1.93;1.73;;;24.50;99.00;;;;;;5101557;28;20521;-68
2022/08/26 04:20:12;;;;;;;1.40;1.30;;;24.50;99.10;;;;;;5102271;28;20463;-68
2022/08/26 04:22:45;;;;;;;1.63;1.53;;;24.40;99.60;;;;;;5102838;28;20464;-68
2022/08/26 04:25:17;;;;;;;1.90;1.57;;;24.30;99.80;;;;;;5101147;28;20498;-68
2022/08/26 04:27:51;;;;;;;1.43;1.30;;;24.20;99.90;;;;;;5124020;28;20438;-69
2022/08/26 04:30:21;;;;;;;1.70;1.40;;;24.10;99.90;;;;;;5109769;28;20456;-68
2022/08/26 04:32:54;;;;;;;1.70;1.53;;;24.00;99.90;;;;;;5123086;28;20489;-68
2022/08/26 04:35:26;;;;;;;1.77;1.60;;;24.00;99.90;;;;;;5122496;28;20484;-69
2022/08/26 04:37:58;;;;;;;1.60;1.50;;;23.90;99.90;;;;;;5101230;28;20463;-68
2022/08/26 04:40:29;;;;;;;2.13;1.47;;;23.90;99.90;;;;;;5097861;28;20481;-68
2022/08/26 04:43:01;;;;;;;1.60;1.50;;;23.80;99.90;;;;;;5118818;28;20488;-68
2022/08/26 04:45:32;;;;;;;2.07;1.80;;;23.60;99.90;;;;;;5101826;28;20487;-67
2022/08/26 04:48:03;;;;;;;2.10;1.60;;;23.50;99.90;;;;;;5114661;28;20453;-67
2022/08/26 04:50:39;;;;;;;1.50;1.40;;;23.40;99.90;;;;;;5127384;28;20498;-67
2022/08/26 04:53:12;;;;;;;1.83;1.70;;;23.40;99.90;;;;;;5120532;28;20453;-68
2022/08/26 04:55:43;;;;;;;2.40;1.40;;;23.30;99.90;;;;;;5127143;28;20450;-67
2022/08/26 04:58:20;;;;;;;1.60;1.50;;;23.20;99.90;;;;;;5126916;28;20491;-68
2022/08/26 05:00:52;;;;;;;2.63;1.50;;;23.10;99.90;;;;;;5127360;28;20423;-68
2022/08/26 05:03:24;;;;;;;2.10;1.37;;;23.00;99.90;;;;;;5126452;28;20453;-68
2022/08/26 05:05:55;;;;;;;1.57;1.40;;;22.90;99.90;;;;;;5121046;28;20489;-67
2022/08/26 05:08:26;;;;;;;1.73;1.23;;;22.80;99.90;;;;;;5103254;28;20481;-68
2022/08/26 05:10:57;;;;;;;1.23;1.13;;;22.70;99.90;;;;;;5110123;28;20455;-68
2022/08/26 05:13:30;;;;;;;1.30;1.20;;;22.70;99.90;;;;;;5114395;28;21062;-68
2022/08/26 05:16:05;;;;;;;1.47;1.37;;;22.60;99.90;;;;;;5125268;28;20969;-68
2022/08/26 05:18:37;;;;;;;1.63;1.33;;;22.50;99.90;;;;;;5118809;27;20458;-68
2022/08/26 05:21:10;;;;;;;1.77;1.67;;;22.40;99.90;;;;;;5105441;28;20463;-68
2022/08/26 05:23:41;;;;;;;1.80;1.60;;;22.40;99.90;;;;;;5125092;28;20449;-68
2022/08/26 05:26:13;;;;;;;1.40;1.30;;;22.20;99.90;;;;;;5112334;28;20489;-68
2022/08/26 05:28:46;;;;;;;1.63;1.53;;;22.20;99.90;;;;;;5123448;28;20460;-68
2022/08/26 05:31:19;;;;;;;1.60;1.50;;;22.10;99.90;;;;;;5094013;28;20467;-68
2022/08/26 05:33:50;;;;;;;1.93;1.77;;;22.10;99.90;;;;;;5112690;28;20469;-68
2022/08/26 05:36:23;;;;;;;1.37;1.20;;;22.00;99.90;;;;;;5120316;28;20508;-68
2022/08/26 05:38:56;;;;;;;1.27;1.17;;;21.90;99.90;;;;;;5113277;28;20496;-68
2022/08/26 05:41:29;;;;;;;1.40;1.30;;;21.90;99.90;;;;;;5120860;28;20454;-68
2022/08/26 05:44:09;;;;;;;2.00;1.57;;;21.70;99.90;;;;;;5095571;28;20507;-68
2022/08/26 05:46:42;;;;;;;1.83;1.20;;;21.60;99.90;;;;;;5097050;28;20834;-67
2022/08/26 05:49:14;;;;;;;1.80;1.70;;;21.60;99.90;;;;;;5099046;28;20464;-68
2022/08/26 05:51:45;;;;;;;1.70;1.30;;;21.50;99.90;;;;;;5116814;28;20463;-68
2022/08/26 05:54:17;;;;;;;1.70;1.60;;;21.50;99.90;;;;;;5099190;28;20463;-68
2022/08/26 05:56:51;;;;;;;2.17;1.60;;;21.50;99.90;;;;;;5098511;28;20459;-68
2022/08/26 05:59:24;;;;;;;1.70;1.50;;;21.40;99.90;;;;;;5114621;28;20456;-68
2022/08/26 06:01:55;;;;;;;2.10;1.53;;;21.20;99.90;;;;;;5114178;28;20485;-68
2022/08/26 06:04:27;;;;;;;1.70;1.60;;;21.10;99.90;;;;;;5111104;28;20468;-67
2022/08/26 06:06:59;;;;;;;1.47;1.37;;;21.10;99.90;;;;;;5111023;28;20506;-68
2022/08/26 06:09:30;;;;;;;2.70;1.83;;;21.00;99.90;;;;;;5116243;28;20921;-68
2022/08/26 06:12:01;;;;;;;1.63;1.50;;;21.00;99.90;;;;;;5104761;28;20461;-67
2022/08/26 06:14:34;;;;;;;2.20;1.60;;;20.90;99.90;;;;;;5111627;28;20455;-68
2022/08/26 06:17:05;;;;;;;1.37;1.27;;;20.80;99.90;;;;;;5109065;28;20445;-67
2022/08/26 06:19:38;;;;;;;1.40;1.30;;;20.80;99.90;;;;;;5106955;28;20465;-67
2022/08/26 06:27:42;;;;;;;1.43;1.33;;;20.50;99.90;;;;;;5102007;28;20438;-67
2022/08/26 06:30:15;;;;;;;1.50;1.40;;;20.50;99.90;;;;;;5109445;28;20458;-67
2022/08/26 06:32:45;;;;;;;1.77;1.50;;;20.50;99.90;;;;;;5120497;28;20453;-67
2022/08/26 06:35:18;;;;;;;1.60;1.50;;;20.40;99.90;;;;;;5111293;28;20642;-68
2022/08/26 06:37:49;;;;;;;1.70;1.60;;;20.30;99.90;;;;;;5105991;28;20441;-68
2022/08/26 06:40:22;;;;;;;1.40;1.30;;;20.30;99.90;;;;;;5103351;28;20472;-68
2022/08/26 06:42:53;;;;;;;1.47;1.37;;;20.30;99.90;;;;;;5106927;28;20453;-68
2022/08/26 06:45:26;;;;;;;2.20;2.00;;;20.30;99.90;;;;;;5106017;28;20551;-68
2022/08/26 06:47:57;;;;;;;1.60;1.50;;;20.20;99.90;;;;;;5101456;28;20456;-68
2022/08/26 06:50:28;;;;;;;1.77;1.57;;;20.10;99.90;;;;;;5112601;28;20468;-68
2022/08/26 06:52:58;;;;;;;1.50;1.40;;;20.10;99.90;;;;;;5098319;28;20459;-68
2022/08/26 06:55:29;;;;;;;2.10;1.70;;;19.90;99.90;;;;;;5093231;28;20466;-68
2022/08/26 06:58:00;;;;;;;1.97;1.87;;;19.90;99.90;;;;;;5094513;28;20464;-67
2022/08/26 07:00:35;;;;;;;2.00;1.80;;;19.90;99.90;;;;;;5102040;28;21093;-67
2022/08/26 07:03:08;;;;;;;2.03;1.60;;;19.90;99.90;;;;;;5099065;28;20437;-67
2022/08/26 07:05:39;;;;;;;2.37;1.87;;;19.80;99.90;;;;;;5088258;28;20455;-67
2022/08/26 07:08:10;;;;;;;2.10;1.83;;;19.70;99.90;;;;;;5106511;28;20472;-67
2022/08/26 07:10:42;;;;;;;1.83;1.13;;;19.70;99.90;;;;;;5087505;28;20449;-67
2022/08/26 07:13:13;;;;;;;1.77;1.50;;;19.70;99.90;;;;;;5091965;28;20544;-68
2022/08/26 07:15:46;;;;;;;1.83;1.70;;;19.70;99.90;;;;;;5100943;28;20436;-68
2022/08/26 07:18:21;;;;;;;1.60;1.50;;;19.70;99.90;;;;;;5108181;28;20467;-67
2022/08/26 07:20:53;;;;;;;1.80;1.70;;;19.60;99.90;;;;;;5098963;28;20502;-67
2022/08/26 07:23:24;;;;;;;1.80;1.47;;;19.60;99.90;;;;;;5108158;28;20462;-66
2022/08/26 07:25:56;;;;;;;1.93;1.73;;;19.50;99.90;;;;;;5120982;28;20485;-66
2022/08/26 07:28:27;;;;;;;1.87;1.73;;;19.40;99.90;;;;;;5121873;28;20531;-66
2022/08/26 07:31:04;;;;;;;2.23;2.03;;;19.40;99.90;;;;;;5108799;28;20464;-66
2022/08/26 07:33:39;;;;;;;1.83;1.70;;;19.40;99.90;;;;;;5109957;28;20462;-66
2022/08/26 07:36:11;;;;;;;2.60;2.40;;;19.40;99.90;;;;;;5109936;28;20454;-66
2022/08/26 07:38:44;;;;;;;2.47;1.93;;;19.40;99.90;;;;;;5113196;28;20443;-66
2022/08/26 07:41:17;;;;;;;2.00;1.90;;;19.40;99.90;;;;;;5109650;28;20476;-67
2022/08/26 07:43:48;;;;;;;2.67;2.47;;;19.30;99.90;;;;;;5091790;28;20497;-66
2022/08/26 07:46:21;;;;;;;2.30;2.10;;;19.30;99.90;;;;;;5116168;28;20490;-67
2022/08/26 07:48:59;;;;;;;3.27;2.10;;;19.30;99.90;;;;;;5116680;28;20457;-66
2022/08/26 07:51:30;;;;;;;3.00;2.70;;;19.30;99.90;;;;;;5108174;28;20424;-67
2022/08/26 07:54:03;;;;;;;3.60;2.83;;;19.20;99.90;;;;;;5111882;28;20456;-66
2022/08/26 07:56:34;;;;;;;2.50;2.30;;;19.20;99.90;;;;;;5098593;28;20986;-67
2022/08/26 07:59:05;;;;;;;3.30;2.80;;;19.10;99.90;;;;;;5109816;28;20449;-66
2022/08/26 08:01:46;;;;;;;3.17;2.53;;;19.10;99.90;;;;;;5112982;28;20442;-66
2022/08/26 08:04:18;;;;;;;2.50;2.23;;;19.00;99.90;;;;;;5106442;28;20910;-67
2022/08/26 08:06:55;;;;;;;2.77;2.50;;;19.00;99.90;;;;;;5104896;28;20505;-66
2022/08/26 08:09:27;;;;;;;2.27;2.00;;;18.90;99.90;;;;;;5104965;28;20454;-66
2022/08/26 08:11:58;;;;;;;3.03;2.60;;;18.90;99.90;;;;;;5116292;28;20457;-66
2022/08/26 08:14:29;;;;;;;2.50;2.20;;;18.90;99.90;;;;;;5110383;28;20519;-66
2022/08/26 08:17:02;;;;;;;1.70;1.60;;;18.90;99.90;;;;;;5110718;28;20458;-66
2022/08/26 08:19:34;;;;;;;3.07;2.20;;;18.80;99.90;;;;;;5105785;28;20453;-66
2022/08/26 08:22:08;;;;;;;2.60;2.20;;;18.80;99.90;;;;;;5113872;28;20450;-66
2022/08/26 08:24:48;;;;;;;2.13;1.93;;;18.80;99.90;;;;;;5098067;28;21015;-67
2022/08/26 08:27:22;;;;;;;2.40;2.20;;;18.80;99.90;;;;;;5092405;28;20926;-66
2022/08/26 08:29:54;;;;;;;2.30;1.90;;;18.70;99.90;;;;;;5101359;28;20486;-66
2022/08/26 08:32:28;;;;;;;2.00;1.70;;;18.70;99.90;;;;;;5100094;28;20439;-66
2022/08/26 08:34:59;;;;;;;2.10;1.90;;;18.70;99.90;;;;;;5108036;28;20975;-67
2022/08/26 08:37:39;;;;;;;1.97;1.77;;;18.70;99.90;;;;;;5105369;28;20428;-66
2022/08/26 08:40:16;;;;;;;1.80;1.70;;;18.70;99.90;;;;;;5088382;28;20440;-66
2022/08/26 08:42:53;;;;;;;1.70;1.50;;;18.60;99.90;;;;;;5106594;28;20493;-66
2022/08/26 08:45:31;;;;;;;2.10;1.83;;;18.50;99.90;;;;;;5106008;28;20437;-66
2022/08/26 08:48:12;;;;;;;2.70;1.80;;;18.60;99.90;;;;;;5093637;28;20485;-66
2022/08/26 08:50:46;;;;;;;2.00;1.80;;;18.50;99.90;;;;;;5088766;28;20470;-66
2022/08/26 08:53:22;;;;;;;1.60;1.47;;;18.40;99.90;;;;;;5097163;28;20466;-66
2022/08/26 08:56:05;;;;;;;2.20;1.70;;;18.40;99.90;;;;;;5087568;28;20519;-66
2022/08/26 08:58:51;;;;;;;1.63;1.53;;;18.40;99.90;;;;;;5104316;28;20498;-66
2022/08/26 09:01:42;;;;;;;2.27;2.07;;;18.40;99.90;;;;;;5101177;28;20433;-66
2022/08/26 09:04:28;;;;;;;2.43;2.23;;;18.40;99.90;;;;;;5117202;28;20429;-66
2022/08/26 09:07:02;;;;;;;1.60;1.50;;;18.40;99.90;;;;;;5094374;28;20471;-66
2022/08/26 09:09:38;;;;;;;1.83;1.73;;;18.40;99.90;;;;;;5102617;28;20488;-66
2022/08/26 09:12:15;;;;;;;1.87;1.73;;;18.40;99.90;;;;;;5100213;28;20529;-66
2022/08/26 09:14:49;;;;;;;2.80;1.60;;;18.20;99.90;;;;;;5115520;28;20435;-66
2022/08/26 09:17:31;;;;;;;2.23;2.03;;;18.20;99.90;;;;;;5107995;28;20500;-66
2022/08/26 09:20:12;;;;;;;2.27;1.80;;;18.20;99.90;;;;;;5117953;28;20428;-66
2022/08/26 09:22:43;;;;;;;2.23;1.70;;;18.20;99.90;;;;;;5113735;28;20469;-66
2022/08/26 09:25:16;;;;;;;2.80;1.80;;;18.20;99.90;;;;;;5107257;28;20472;-66
2022/08/26 09:27:49;;;;;;;1.90;1.60;;;18.20;99.90;;;;;;5110897;28;20497;-65
2022/08/26 09:30:26;;;;;;;1.97;1.63;;;18.10;99.90;;;;;;5105027;28;20485;-66
2022/08/26 09:33:02;;;;;;;2.00;1.80;;;18.10;99.90;;;;;;5124409;28;20453;-66
2022/08/26 09:35:45;;;;;;;2.07;1.87;;;18.00;99.90;;;;;;5107872;28;20511;-66
2022/08/26 09:38:25;;;;;;;1.93;1.73;;;18.10;99.90;;;;;;5109085;28;20421;-66
2022/08/26 09:40:59;;;;;;;1.47;1.37;;;18.10;99.90;;;;;;5096177;28;20959;-66
2022/08/26 09:43:30;;;;;;;1.90;1.67;;;18.10;99.90;;;;;;5117022;28;20516;-66
2022/08/26 09:46:15;;;;;;;1.30;1.20;;;18.00;99.90;;;;;;5125767;28;20450;-66
2022/08/26 09:48:46;;;;;;;1.50;1.40;;;18.00;99.90;;;;;;5125908;28;20459;-67
2022/08/26 09:51:32;;;;;;;1.50;1.40;;;18.00;99.90;;;;;;5122298;28;20428;-65
2022/08/26 09:54:04;;;;;;;1.70;1.60;;;18.00;99.90;;;;;;5125474;28;20447;-66
2022/08/26 09:56:38;;;;;;;1.30;1.20;;;17.90;99.90;;;;;;5126367;28;20447;-67
2022/08/26 09:59:12;;;;;;;1.77;1.67;;;18.00;99.90;;;;;;5119239;28;20445;-65
2022/08/26 10:01:47;;;;;;;1.30;1.20;;;18.00;99.90;;;;;;5111585;28;20505;-66
2022/08/26 10:04:23;;;;;;;1.90;1.80;;;17.90;99.90;;;;;;5095081;28;20941;-66
2022/08/26 10:07:02;;;;;;;1.50;1.27;;;17.90;99.90;;;;;;5101081;28;20457;-66
2022/08/26 10:09:38;;;;;;;1.20;1.10;;;17.90;99.90;;;;;;5109258;28;20439;-66
2022/08/26 10:12:12;;;;;;;1.17;1.07;;;17.90;99.90;;;;;;5108063;28;20496;-66
2022/08/26 10:14:50;;;;;;;1.23;1.10;;;17.80;99.90;;;;;;5098402;28;20461;-66
2022/08/26 10:17:29;;;;;;;2.53;1.60;;;17.80;99.90;;;;;;5114743;28;20470;-65
2022/08/26 10:20:04;;;;;;;1.27;1.17;;;17.80;99.90;;;;;;5114836;28;20517;-66
2022/08/26 10:22:59;;;;;;;1.50;1.40;;;17.70;99.90;;;;;;5101115;28;20461;-66
2022/08/26 10:25:38;;;;;;;1.53;1.23;;;17.70;99.90;;;;;;5096359;28;20443;-66
2022/08/26 10:28:18;;;;;;;1.77;0.93;;;17.70;99.90;;;;;;5089297;28;20501;-66
2022/08/26 10:30:56;;;;;;;1.70;1.60;;;17.70;99.90;;;;;;5093925;28;20808;-66
2022/08/26 10:33:27;;;;;;;1.60;1.50;;;17.70;99.90;;;;;;5100453;28;20433;-65
2022/08/26 10:36:01;;;;;;;1.70;1.30;;;17.70;99.90;;;;;;5105429;28;20510;-66
2022/08/26 10:38:39;;;;;;;1.77;1.30;;;17.70;99.90;;;;;;5096749;28;20440;-66
2022/08/26 10:41:15;;;;;;;1.10;1.00;;;17.70;99.90;;;;;;5098217;28;20490;-65
2022/08/26 10:43:49;;;;;;;1.30;1.20;;;17.60;99.90;;;;;;5091977;28;20500;-66
2022/08/26 10:46:23;;;;;;;1.60;1.00;;;17.60;99.90;;;;;;5103872;28;20526;-66
2022/08/26 10:48:59;;;;;;;1.30;1.20;;;17.60;99.90;;;;;;5103165;28;20491;-66
2022/08/26 10:51:37;;;;;;;1.23;1.13;;;17.50;99.90;;;;;;5105136;28;20523;-66
2022/08/26 10:54:14;;;;;;;1.37;1.00;;;17.50;99.90;;;;;;5107880;28;20433;-66
2022/08/26 10:56:53;;;;;;;1.20;1.00;;;17.50;99.90;;;;;;5091803;28;20477;-66
2022/08/26 10:59:39;;;;;;;1.67;1.10;;;17.50;99.90;;;;;;5101834;28;20908;-66
2022/08/26 11:02:15;;;;;;;1.20;1.10;;;17.50;99.90;;;;;;5101477;28;20483;-66
2022/08/26 11:04:56;;;;;;;1.27;1.13;;;17.50;99.90;;;;;;5107002;28;20457;-66
2022/08/26 11:07:39;;;;;;;1.20;1.10;;;17.50;99.90;;;;;;5108951;28;20493;-66
2022/08/26 11:10:55;;;;;;;1.07;0.97;;;17.40;99.90;;;;;;5100368;28;20432;-66
2022/08/26 11:14:02;;;;;;;2.00;1.37;;;17.50;99.90;;;;;;5107419;28;20484;-66
2022/08/26 11:16:42;;;;;;;1.03;1.00;;;17.40;99.90;;;;;;5107020;28;20461;-66
2022/08/26 11:19:34;;;;;;;1.40;1.13;;;17.30;99.90;;;;;;5092710;28;20568;-66
2022/08/26 11:22:30;;;;;;;1.63;1.53;;;17.30;99.90;;;;;;5104837;28;20454;-66
2022/08/26 11:25:07;;;;;;;1.20;1.10;;;17.30;99.90;;;;;;5111744;28;20464;-66
2022/08/26 11:28:00;;;;;;;1.37;1.27;;;17.30;99.90;;;;;;5123939;28;20449;-66
2022/08/26 11:30:41;;;;;;;1.03;1.03;;;17.30;99.90;;;;;;5105726;28;20462;-66
2022/08/26 11:33:34;;;;;;;1.30;1.20;;;17.20;99.90;;;;;;5111612;28;20470;-66
2022/08/26 11:36:06;;;;;;;2.50;1.10;;;17.20;99.90;;;;;;5090865;28;20492;-66
2022/08/26 11:38:44;;;;;;;1.90;1.57;;;17.20;99.90;;;;;;5097076;28;20459;-66
2022/08/26 11:41:27;;;;;;;1.30;1.20;;;17.20;99.90;;;;;;5097375;28;20461;-66
2022/08/26 11:44:01;;;;;;;1.70;1.60;;;17.10;99.90;;;;;;5111341;28;20479;-65
2022/08/26 11:46:36;;;;;;;1.10;1.00;;;17.10;99.90;;;;;;5107080;28;20462;-66
2022/08/26 11:49:10;;;;;;;1.30;1.20;;;17.20;99.90;;;;;;5108247;28;20506;-66
2022/08/26 11:51:41;;;;;;;1.00;0.87;;;17.10;99.90;;;;;;5107423;28;20465;-66
2022/08/26 11:54:19;;;;;;;1.43;1.33;;;17.10;99.90;;;;;;5102506;28;20506;-66
2022/08/26 11:57:05;;;;;;;1.43;1.33;;;17.10;99.90;;;;;;5102762;28;20565;-66
2022/08/26 11:59:43;;;;;;;1.23;1.13;;;17.10;99.90;;;;;;5095593;28;20474;-66
2022/08/26 12:02:18;;;;;;;1.23;1.03;;;17.00;99.90;;;;;;5101107;28;20432;-66
2022/08/26 12:04:51;;;;;;;1.40;1.30;;;17.00;99.90;;;;;;5094463;28;20444;-66
2022/08/26 12:07:27;;;;;;;1.33;1.23;;;17.00;99.90;;;;;;5103689;28;20519;-66
2022/08/26 12:10:01;;;;;;;1.23;1.10;;;16.90;99.90;;;;;;5108405;28;20482;-67
2022/08/26 12:12:33;;;;;;;1.10;1.00;;;16.90;99.90;;;;;;5095697;28;20475;-66
2022/08/26 12:15:16;;;;;;;1.27;1.17;;;16.90;99.90;;;;;;5111480;28;20467;-66
2022/08/26 12:17:48;;;;;;;1.27;1.00;;;16.80;99.90;;;;;;5093244;28;20441;-66
2022/08/26 12:20:44;;;;;;;1.57;1.47;;;16.70;99.90;;;;;;5106200;28;20473;-66
2022/08/26 12:23:26;;;;;;;1.70;1.50;;;16.70;99.90;;;;;;5109046;28;20458;-66
2022/08/26 12:26:05;;;;;;;1.40;1.30;;;16.70;99.90;;;;;;5116591;28;20461;-66
2022/08/26 12:28:45;;;;;;;1.60;1.30;;;16.70;99.90;;;;;;5102459;28;21021;-66
2022/08/26 12:31:24;;;;;;;1.63;1.30;;;16.70;99.90;;;;;;5092644;28;20477;-66
2022/08/26 12:33:57;;;;;;;1.10;1.00;;;16.60;99.90;;;;;;5089346;28;20814;-66
2022/08/26 12:36:32;;;;;;;2.40;1.30;;;16.70;99.90;;;;;;5102136;28;20448;-66
2022/08/26 12:39:11;;;;;;;1.10;1.00;;;16.70;99.90;;;;;;5100358;28;20464;-66
2022/08/26 12:41:46;;;;;;;1.33;1.23;;;16.80;99.90;;;;;;5103293;28;20473;-66
2022/08/26 12:44:39;;;;;;;1.37;0.90;;;16.80;99.90;;;;;;5122315;28;20443;-66
2022/08/26 12:47:26;;;;;;;1.10;0.97;;;16.90;99.90;;;;;;5114355;28;20450;-65
2022/08/26 12:50:19;;;;;;;1.70;1.60;;;16.90;99.90;;;;;;5126523;28;20444;-66
2022/08/26 12:52:58;;;;;;;1.57;1.47;;;16.90;99.90;;;;;;5127100;28;20860;-66
2022/08/26 12:55:39;;;;;;;1.60;1.50;;;16.80;99.90;;;;;;5121120;28;20521;-66
2022/08/26 12:58:25;;;;;;;1.30;1.20;;;16.90;99.90;;;;;;5105307;28;20469;-66
2022/08/26 13:00:58;;;;;;;1.60;1.33;;;16.90;99.90;;;;;;5090742;28;20479;-66
2022/08/26 13:03:42;;;;;;;1.30;1.20;;;16.90;99.90;;;;;;5103831;28;20465;-66
2022/08/26 13:06:24;;;;;;;1.30;1.20;;;16.90;99.90;;;;;;5102340;28;20459;-66
2022/08/26 13:08:56;;;;;;;1.80;1.40;;;16.90;99.90;;;;;;5097765;28;20485;-66
2022/08/26 13:11:29;;;;;;;1.10;1.00;;;17.00;99.90;;;;;;5114377;28;20466;-66
2022/08/26 13:14:02;;;;;;;1.10;0.90;;;16.90;99.90;;;;;;5107004;28;20452;-66
2022/08/26 13:16:37;;;;;;;1.77;1.67;;;16.90;99.90;;;;;;5106772;28;20482;-66
2022/08/26 13:19:11;;;;;;;1.63;1.53;;;16.90;99.90;;;;;;5106868;28;20489;-66
2022/08/26 13:21:46;;;;;;;1.23;1.13;;;16.90;99.90;;;;;;5102163;28;20453;-66
2022/08/26 13:24:18;;;;;;;2.07;1.47;;;16.90;99.90;;;;;;5123966;28;20427;-66
2022/08/26 13:26:50;;;;;;;1.17;1.07;;;16.90;99.90;;;;;;5090858;28;20468;-67
2022/08/26 13:29:21;;;;;;;1.40;1.30;;;16.90;99.90;;;;;;5126189;28;20481;-67
2022/08/26 13:31:52;;;;;;;1.73;1.13;;;16.80;99.90;;;;;;5109004;27;20546;-66
2022/08/26 13:34:25;;;;;;;2.40;1.70;;;16.90;99.90;;;;;;5109157;28;20458;-66
2022/08/26 13:36:57;;;;;;;1.37;1.27;;;16.90;99.90;;;;;;5096737;28;20460;-67